Flight Briefing for CMB845

Departure Arrival
NAS Sigonella (LICZ)
Click to view FAA NOTAMS
Bahrain International Airport (OBBI)
Click to view FAA NOTAMS
Departure Time Arrival Time
N/A N/A
Aircraft Distance
B757-200SF 1929nm
Departure METAR Arrival METAR
LICZ 232255Z 30005KT CAVOK 14/13 Q1016 RMK SKC VIS MIN 9999 WIND THR28 29004KT WIND THR10 30005KT A3003 BLU OBBI 232330Z 26007KT CAVOK 31/19 Q1006 NOSIG
Suggested Route
ERNAM5U ERNAM EMLAR N4 SALUN Q680 DBA UM872 WEJ UL604 KFA M691 LADNA LADNA1


View recent IFR Routes data
Notes
USTRANSCOM CONTRACT FLIGHT

Charts and Procedures

Charts for LICZ
No chart available
Charts for OBBI
No chart available

Windy.com Weather Map